首页
METAR-TAF:

METAR-TAF

机场 :

Roanoke Regional Airport (Woodrum Field)

羅阿諾克, 弗吉尼亚州, 美国

纬度: 37-19-01N, 经度: 079-58-27W, 海拔: 358米

当前天气观测

该预报发布于18分钟前的01:54 UTC
风速4节,风向西转西南
温度 22°C
湿度 88%
气压 1015 hPa
能見度: 16.1公里
少量云层高于8000英尺
多云层高于10000英尺
多云层高于11000英尺

METAR: KROA 220154Z 25004KT 10SM FEW080 BKN100 BKN110 22/20 A2997 RMK AO2 RAB03E28 SLP138 P0000 T02220200

时间: 22:12 (02:12 UTC)

预报

该预报发布于1小时和52分钟前的00:20 UTC
预报有效从22日的 00点(UTC)到 22日的 24点(UTC)
风速10节,风向西转西南
能見度: 8.0公里
阴天层高于3500英尺
小阵雨
从 22日的 0130点(UTC)
风速3节,风向多变
能見度: 10公里
散云层高于2500英尺
多云层高于7000英尺
附近有阵雨
从 22日的 0800点(UTC)
风速5节,风向西
能見度: 10公里
散云层高于5000英尺
从 22日的 1800点(UTC)
风速10节,风向西北,有时为18节阵风
能見度: 10公里
散云层高于4000英尺

TAF: KROA 220020Z 2200/2224 25010KT 5SM -SHRA OVC035 FM220130 VRB03KT P6SM VCSH SCT025 BKN070 FM220800 28005KT P6SM SCT050 FM221800 31010G18KT P6SM SCT040

超过4000个机场的气象观测和天气预报(METAR&TAF报告)。

可查询的气象台以黄色和红色小点在地图上表示。

将鼠标移到小点上方,可查看气象台名称。

然后点击查看天气观测和预报。

如需切换地图:点击带黑十字的绿色按钮放大地图;点击带横线的绿色按钮缩小地图;或者点击绿色箭头查看邻近地区的地图。


METAR-TAF: